Terminal Aerodrome Forecast
Issued by NWS

Home | Current Version | Previous Version | Graphics & Text | Print | Product List | Glossary On
Versions: 1 2 3 4 5 6 7 8 9 10 11 12 13 14 15 16 17 18 19 20 21 22 23 24 25 26 27 28 29 30 31 32 33 34 35 36 37 38 39 40 41 42 43 44 45 46 47
000
FTUS43 KGRB 260500
TAFRHI
TAF
KRHI 260520Z 2606/2706 00000KT 5SM BR SCT006 OVC025
      TEMPO 2606/2610 2SM -FZDZSN BR BKN006
     FM261000 00000KT 2SM -FZDZSN BR OVC003
     FM261600 04003KT 5SM BR OVC004
     FM270200 03005KT 1SM -SN OVC006=

USA.gov is the U.S. government's official web portal to all federal, state and local government web resources and services.